Time;durP1;ratioP1;P1;durP2;ratioP2;P2;SDS_P1;SDS_P2;PMS_P1;PMS_P2;Temp;Humidity;BMP_temperature;BMP_pressure;BME280_temperature;BME280_humidity;BME280_pressure;Samples;Min_cycle;Max_cycle;Signal;HPM_P1;HPM_P2
2022/08/06 00:02:16;;;;;;;;;;;12.60;99.90;;;;;;4810258;29;20455;-72
2022/08/06 00:04:42;;;;;;;;;;;12.50;99.90;;;;;;4806945;29;19925;-72
2022/08/06 00:07:07;;;;;;;;;;;12.40;99.90;;;;;;4817596;29;19931;-72
2022/08/06 00:09:33;;;;;;;;;;;12.40;99.90;;;;;;4813709;29;19924;-72
2022/08/06 00:11:59;;;;;;;;;;;12.50;99.90;;;;;;4817708;29;19932;-72
2022/08/06 00:14:26;;;;;;;;;;;12.40;99.90;;;;;;4822000;29;20023;-72
2022/08/06 00:16:51;;;;;;;;;;;12.20;99.90;;;;;;4819829;29;20072;-72
2022/08/06 00:19:17;;;;;;;;;;;12.10;99.90;;;;;;4809032;29;20015;-73
2022/08/06 00:21:43;;;;;;;;;;;12.30;99.90;;;;;;4821532;29;20414;-72
2022/08/06 00:24:08;;;;;;;;;;;12.20;99.90;;;;;;4805704;29;19920;-72
2022/08/06 00:26:34;;;;;;;;;;;12.10;99.90;;;;;;4794654;29;19921;-72
2022/08/06 00:28:59;;;;;;;;;;;12.00;99.90;;;;;;4821819;29;20354;-72
2022/08/06 00:31:25;;;;;;;;;;;12.00;99.90;;;;;;4808631;29;20301;-72
2022/08/06 00:33:50;;;;;;;;;;;11.90;99.90;;;;;;4821113;29;19932;-72
2022/08/06 00:36:16;;;;;;;;;;;11.90;99.90;;;;;;4821548;29;20005;-72
2022/08/06 00:38:41;;;;;;;;;;;12.00;99.90;;;;;;4821799;29;19972;-72
2022/08/06 00:41:07;;;;;;;;;;;11.90;99.90;;;;;;4816624;29;19921;-72
2022/08/06 00:43:33;;;;;;;;;;;11.80;99.90;;;;;;4815558;29;19921;-72
2022/08/06 00:45:58;;;;;;;;;;;11.80;99.90;;;;;;4814712;29;19967;-72
2022/08/06 00:48:24;;;;;;;;;;;11.70;99.90;;;;;;4817025;29;20021;-72
2022/08/06 00:50:49;;;;;;;;;;;11.70;99.90;;;;;;4820124;29;19931;-73
2022/08/06 00:53:15;;;;;;;;;;;11.70;99.90;;;;;;4819134;29;19924;-72
2022/08/06 00:55:41;;;;;;;;;;;11.70;99.90;;;;;;4815454;29;20028;-73
2022/08/06 00:58:06;;;;;;;;;;;11.80;99.90;;;;;;4808313;29;19925;-72
2022/08/06 01:00:33;;;;;;;;;;;11.70;99.90;;;;;;4821050;29;20011;-73
2022/08/06 01:02:59;;;;;;;;;;;11.70;99.90;;;;;;4804413;29;19929;-72
2022/08/06 01:05:24;;;;;;;;;;;11.60;99.90;;;;;;4815580;29;19972;-73
2022/08/06 01:07:50;;;;;;;;;;;11.60;99.90;;;;;;4820476;29;19967;-72
2022/08/06 01:10:15;;;;;;;;;;;11.50;99.90;;;;;;4815210;29;19928;-72
2022/08/06 01:12:41;;;;;;;;;;;11.50;99.90;;;;;;4815578;29;20381;-73
2022/08/06 01:15:07;;;;;;;;;;;11.60;99.90;;;;;;4821042;29;20266;-72
2022/08/06 01:17:52;;;;;;;;;;;11.50;99.90;;;;;;4809303;29;19947;-73
2022/08/06 01:20:41;;;;;;;;;;;11.40;99.90;;;;;;4809866;29;19925;-73
2022/08/06 01:23:09;;;;;;;;;;;11.40;99.90;;;;;;4781226;29;19974;-72
2022/08/06 01:25:47;;;;;;;;;;;11.30;99.90;;;;;;4818562;29;20273;-72
2022/08/06 01:28:20;;;;;;;;;;;11.40;99.90;;;;;;4819629;29;19920;-72
2022/08/06 01:30:53;;;;;;;;;;;11.30;99.90;;;;;;4821122;29;19943;-72
2022/08/06 01:33:19;;;;;;;;;;;11.30;99.90;;;;;;4813603;29;19925;-72
2022/08/06 01:35:49;;;;;;;;;;;11.50;99.90;;;;;;4818046;29;19985;-72
2022/08/06 01:38:35;;;;;;;;;;;11.30;99.90;;;;;;4819778;29;19920;-72
2022/08/06 01:41:02;;;;;;;;;;;11.30;99.90;;;;;;4811067;29;20393;-72
2022/08/06 01:43:30;;;;;;;;;;;11.20;99.90;;;;;;4817696;29;19927;-72
2022/08/06 01:45:57;;;;;;;;;;;11.30;99.90;;;;;;4806531;29;19925;-72
2022/08/06 01:48:24;;;;;;;;;;;11.50;99.90;;;;;;4806565;29;19960;-72
2022/08/06 01:50:52;;;;;;;;;;;11.40;99.90;;;;;;4823574;29;19997;-72
2022/08/06 01:53:25;;;;;;;;;;;11.30;99.90;;;;;;4818473;29;19921;-72
2022/08/06 01:55:52;;;;;;;;;;;11.20;99.90;;;;;;4821182;29;19982;-72
2022/08/06 01:58:21;;;;;;;;;;;11.30;99.90;;;;;;4823176;29;19924;-72
2022/08/06 02:00:48;;;;;;;;;;;11.10;99.90;;;;;;4822007;29;20778;-73
2022/08/06 02:03:21;;;;;;;;;;;11.10;99.90;;;;;;4822955;29;19969;-73
2022/08/06 02:05:48;;;;;;;;;;;11.20;99.90;;;;;;4822768;29;20409;-72
2022/08/06 02:08:15;;;;;;;;;;;11.00;99.90;;;;;;4825901;29;20364;-72
2022/08/06 02:10:42;;;;;;;;;;;11.00;99.90;;;;;;4813274;29;19921;-72
2022/08/06 02:13:09;;;;;;;;;;;11.20;99.90;;;;;;4810128;29;19921;-72
2022/08/06 02:15:35;;;;;;;;;;;11.20;99.90;;;;;;4825059;29;19925;-72
2022/08/06 02:18:02;;;;;;;;;;;10.90;99.90;;;;;;4824252;29;19920;-72
2022/08/06 02:20:33;;;;;;;;;;;11.10;99.90;;;;;;4824428;29;19970;-72
2022/08/06 02:23:00;;;;;;;;;;;10.90;99.90;;;;;;4824114;29;20303;-72
2022/08/06 02:25:26;;;;;;;;;;;11.10;99.90;;;;;;4824452;29;19924;-72
2022/08/06 02:27:53;;;;;;;;;;;11.00;99.90;;;;;;4825562;29;19943;-73
2022/08/06 02:30:18;;;;;;;;;;;11.00;99.90;;;;;;4825191;29;19952;-73
2022/08/06 02:32:45;;;;;;;;;;;11.00;99.90;;;;;;4823769;29;20334;-72
2022/08/06 02:35:11;;;;;;;;;;;10.90;99.90;;;;;;4822745;29;20323;-72
2022/08/06 02:37:39;;;;;;;;;;;10.90;99.90;;;;;;4819650;29;19920;-72
2022/08/06 02:40:09;;;;;;;;;;;11.10;99.90;;;;;;4821729;29;20000;-73
2022/08/06 02:42:41;;;;;;;;;;;10.90;99.90;;;;;;4823513;29;19921;-72
2022/08/06 02:45:33;;;;;;;;;;;11.10;99.90;;;;;;4821520;29;19921;-72
2022/08/06 02:48:07;;;;;;;;;;;11.00;99.90;;;;;;4794927;29;19972;-72
2022/08/06 02:50:34;;;;;;;;;;;10.80;99.90;;;;;;4822202;29;20020;-72
2022/08/06 02:53:01;;;;;;;;;;;10.90;99.90;;;;;;4823463;29;19974;-72
2022/08/06 02:55:31;;;;;;;;;;;10.90;99.90;;;;;;4822552;29;19925;-73
2022/08/06 02:57:59;;;;;;;;;;;11.00;99.90;;;;;;4816968;29;20389;-72
2022/08/06 03:00:25;;;;;;;;;;;10.90;99.90;;;;;;4822552;29;19932;-73
2022/08/06 03:02:54;;;;;;;;;;;10.90;99.90;;;;;;4823340;29;19921;-72
2022/08/06 03:05:20;;;;;;;;;;;11.00;99.90;;;;;;4807637;29;19956;-73
2022/08/06 03:07:47;;;;;;;;;;;11.00;99.90;;;;;;4813524;29;20011;-72
2022/08/06 03:10:13;;;;;;;;;;;10.90;99.90;;;;;;4817670;29;20818;-72
2022/08/06 03:12:40;;;;;;;;;;;11.10;99.90;;;;;;4821097;29;19936;-72
2022/08/06 03:15:06;;;;;;;;;;;11.00;99.90;;;;;;4823685;29;19921;-72
2022/08/06 03:17:34;;;;;;;;;;;11.00;99.90;;;;;;4824965;29;19921;-73
2022/08/06 03:20:01;;;;;;;;;;;10.80;99.90;;;;;;4820871;29;19929;-72
2022/08/06 03:22:27;;;;;;;;;;;10.80;99.90;;;;;;4822793;29;19973;-72
2022/08/06 03:24:54;;;;;;;;;;;10.80;99.90;;;;;;4823364;29;20433;-72
2022/08/06 03:27:20;;;;;;;;;;;11.00;99.90;;;;;;4822398;29;19928;-72
2022/08/06 03:29:47;;;;;;;;;;;10.90;99.90;;;;;;4822418;29;20322;-72
2022/08/06 03:32:13;;;;;;;;;;;10.90;99.90;;;;;;4821509;29;20008;-72
2022/08/06 03:34:40;;;;;;;;;;;10.70;99.90;;;;;;4823069;29;20265;-72
2022/08/06 03:37:07;;;;;;;;;;;10.90;99.90;;;;;;4821418;29;20282;-73
2022/08/06 03:39:33;;;;;;;;;;;10.70;99.90;;;;;;4805910;29;19921;-73
2022/08/06 03:41:59;;;;;;;;;;;10.80;99.90;;;;;;4821989;29;19924;-72
2022/08/06 03:44:24;;;;;;;;;;;10.80;99.90;;;;;;4821389;29;19948;-73
2022/08/06 03:46:57;;;;;;;;;;;10.80;99.90;;;;;;4820519;29;20285;-72
2022/08/06 03:49:37;;;;;;;;;;;10.50;99.90;;;;;;4819922;29;19921;-72
2022/08/06 03:52:04;;;;;;;;;;;10.50;99.90;;;;;;4806164;29;19924;-72
2022/08/06 03:54:33;;;;;;;;;;;10.50;99.90;;;;;;4820434;29;20020;-72
2022/08/06 03:57:11;;;;;;;;;;;10.60;99.90;;;;;;4816533;29;19924;-72
2022/08/06 03:59:38;;;;;;;;;;;10.70;99.90;;;;;;4815099;29;20028;-72
2022/08/06 04:02:05;;;;;;;;;;;10.50;99.90;;;;;;4816762;29;20015;-72
2022/08/06 04:04:32;;;;;;;;;;;10.70;99.90;;;;;;4821554;29;19984;-73
2022/08/06 04:06:58;;;;;;;;;;;10.70;99.90;;;;;;4820958;29;20009;-72
2022/08/06 04:09:25;;;;;;;;;;;10.70;99.90;;;;;;4820096;29;19928;-73
2022/08/06 04:11:51;;;;;;;;;;;10.60;99.90;;;;;;4822242;29;19928;-72
2022/08/06 04:14:17;;;;;;;;;;;10.70;99.90;;;;;;4821718;29;19921;-73
2022/08/06 04:16:42;;;;;;;;;;;10.60;99.90;;;;;;4821693;29;20028;-73
2022/08/06 04:19:10;;;;;;;;;;;10.70;99.90;;;;;;4821734;29;19924;-73
2022/08/06 04:21:35;;;;;;;;;;;10.70;99.90;;;;;;4821805;29;19949;-72
2022/08/06 04:24:01;;;;;;;;;;;10.60;99.90;;;;;;4821354;29;19928;-72
2022/08/06 04:26:28;;;;;;;;;;;10.70;99.90;;;;;;4821770;29;19929;-73
2022/08/06 04:28:55;;;;;;;;;;;10.90;99.90;;;;;;4821731;29;19960;-72
2022/08/06 04:31:22;;;;;;;;;;;10.90;99.90;;;;;;4818934;29;19932;-73
2022/08/06 04:33:48;;;;;;;;;;;10.90;99.90;;;;;;4805435;29;19928;-73
2022/08/06 04:36:14;;;;;;;;;;;10.80;99.90;;;;;;4806950;29;19932;-75
2022/08/06 04:38:40;;;;;;;;;;;11.00;99.90;;;;;;4815921;29;19921;-75
2022/08/06 04:41:06;;;;;;;;;;;11.00;99.90;;;;;;4813767;29;19928;-72
2022/08/06 04:43:32;;;;;;;;;;;11.20;99.90;;;;;;4819019;29;19960;-75
2022/08/06 04:45:57;;;;;;;;;;;11.00;99.90;;;;;;4797417;29;19980;-72
2022/08/06 04:48:23;;;;;;;;;;;11.20;99.90;;;;;;4821376;29;19931;-72
2022/08/06 04:50:49;;;;;;;;;;;11.30;99.90;;;;;;4816604;29;19943;-72
2022/08/06 04:53:16;;;;;;;;;;;11.20;99.90;;;;;;4820890;29;20448;-73
2022/08/06 04:55:42;;;;;;;;;;;11.40;99.90;;;;;;4817470;29;19931;-74
2022/08/06 04:58:09;;;;;;;;;;;11.30;99.90;;;;;;4818497;29;19924;-74
2022/08/06 05:00:36;;;;;;;;;;;11.30;99.90;;;;;;4817308;29;19974;-74
2022/08/06 05:03:03;;;;;;;;;;;11.30;99.90;;;;;;4819784;29;19928;-74
2022/08/06 05:05:30;;;;;;;;;;;11.50;99.90;;;;;;4801594;29;20144;-74
2022/08/06 05:07:56;;;;;;;;;;;11.40;99.90;;;;;;4819956;29;19924;-74
2022/08/06 05:10:22;;;;;;;;;;;11.40;99.90;;;;;;4817491;29;19921;-74
2022/08/06 05:12:54;;;;;;;;;;;11.50;99.90;;;;;;4818715;29;19985;-73
2022/08/06 05:15:22;;;;;;;;;;;11.50;99.90;;;;;;4819397;29;19925;-73
2022/08/06 05:17:54;;;;;;;;;;;11.40;99.90;;;;;;4818944;29;19921;-74
2022/08/06 05:20:20;;;;;;;;;;;11.60;99.90;;;;;;4835999;29;20836;-75
2022/08/06 05:22:48;;;;;;;;;;;11.60;99.90;;;;;;4820129;29;19929;-77
2022/08/06 05:25:15;;;;;;;;;;;11.50;99.90;;;;;;4823032;29;19969;-74
2022/08/06 05:27:40;;;;;;;;;;;11.40;99.90;;;;;;4818898;29;19956;-74
2022/08/06 05:30:06;;;;;;;;;;;11.30;99.90;;;;;;4824106;29;19971;-74
2022/08/06 05:32:40;;;;;;;;;;;11.50;99.90;;;;;;4825083;29;19940;-74
2022/08/06 05:35:06;;;;;;;;;;;11.50;99.90;;;;;;4823116;29;19931;-74
2022/08/06 05:37:32;;;;;;;;;;;11.50;99.90;;;;;;4822187;29;20385;-74
2022/08/06 05:39:57;;;;;;;;;;;11.70;99.90;;;;;;4825125;29;19943;-74
2022/08/06 05:42:23;;;;;;;;;;;11.60;99.90;;;;;;4823313;29;19928;-74
2022/08/06 05:44:49;;;;;;;;;;;11.60;99.90;;;;;;4821296;29;20498;-74
2022/08/06 05:47:19;;;;;;;;;;;11.90;99.90;;;;;;4824070;29;19931;-78
2022/08/06 05:49:46;;;;;;;;;;;11.80;99.90;;;;;;4815115;29;19927;-73
2022/08/06 05:52:31;;;;;;;;;;;11.80;99.90;;;;;;4812476;29;19927;-73
2022/08/06 05:55:18;;;;;;;;;;;12.00;99.90;;;;;;4811834;29;19931;-73
2022/08/06 05:57:47;;;;;;;;;;;12.10;99.90;;;;;;4818881;29;19925;-73
2022/08/06 06:00:15;;;;;;;;;;;11.90;99.90;;;;;;4824024;29;19920;-73
2022/08/06 06:02:45;;;;;;;;;;;12.20;99.90;;;;;;4823854;29;19931;-73
2022/08/06 06:05:11;;;;;;;;;;;11.90;99.90;;;;;;4824036;29;19977;-73
2022/08/06 06:07:37;;;;;;;;;;;12.20;99.90;;;;;;4824405;29;20373;-73
2022/08/06 06:10:04;;;;;;;;;;;12.00;99.90;;;;;;4823107;29;19925;-73
2022/08/06 06:12:30;;;;;;;;;;;12.10;99.90;;;;;;4799105;29;19931;-74
2022/08/06 06:14:56;;;;;;;;;;;12.00;99.90;;;;;;4823289;29;20314;-73
2022/08/06 06:17:40;;;;;;;;;;;12.20;99.90;;;;;;4821724;29;19932;-73
2022/08/06 06:20:06;;;;;;;;;;;12.40;99.90;;;;;;4822897;29;20030;-72
2022/08/06 06:22:37;;;;;;;;;;;12.50;99.90;;;;;;4819860;29;19936;-73
2022/08/06 06:25:09;;;;;;;;;;;12.70;99.90;;;;;;4816265;29;19952;-73
2022/08/06 06:27:56;;;;;;;;;;;13.00;99.90;;;;;;4821612;29;19928;-73
2022/08/06 06:30:26;;;;;;;;;;;13.10;99.90;;;;;;4822704;29;20111;-73
2022/08/06 06:33:13;;;;;;;;;;;13.70;99.90;;;;;;4821587;29;19974;-73
2022/08/06 06:35:48;;;;;;;;;;;13.90;99.90;;;;;;4821692;29;20007;-74
2022/08/06 06:38:28;;;;;;;;;;;14.40;99.90;;;;;;4821504;29;19929;-73
2022/08/06 06:41:00;;;;;;;;;;;14.60;99.90;;;;;;4821647;29;19946;-74
2022/08/06 06:43:32;;;;;;;;;;;15.00;99.90;;;;;;4821498;29;20496;-73
2022/08/06 06:46:02;;;;;;;;;;;14.90;99.90;;;;;;4823030;29;20293;-73
2022/08/06 06:48:32;;;;;;;;;;;15.20;99.90;;;;;;4822834;29;19928;-73
2022/08/06 06:51:01;;;;;;;;;;;15.20;99.90;;;;;;4823126;29;19968;-73
2022/08/06 06:53:29;;;;;;;;;;;15.20;99.90;;;;;;4807559;29;19928;-73
2022/08/06 06:55:56;;;;;;;;;;;15.10;99.90;;;;;;4805718;29;19979;-73
2022/08/06 06:58:31;;;;;;;;;;;15.10;99.90;;;;;;4822757;29;20023;-73
2022/08/06 07:00:56;;;;;;;;;;;15.40;99.90;;;;;;4822828;29;20322;-73
2022/08/06 07:03:23;;;;;;;;;;;15.50;99.90;;;;;;4823037;29;19920;-73
2022/08/06 07:05:49;;;;;;;;;;;15.60;99.90;;;;;;4822940;29;20020;-73
2022/08/06 07:08:21;;;;;;;;;;;16.00;99.90;;;;;;4822506;29;20486;-73
2022/08/06 07:10:47;;;;;;;;;;;16.10;99.90;;;;;;4821605;29;20365;-74
2022/08/06 07:13:12;;;;;;;;;;;16.10;99.90;;;;;;4822768;29;19929;-74
2022/08/06 07:15:40;;;;;;;;;;;16.40;99.90;;;;;;4822204;29;20415;-74
2022/08/06 07:18:06;;;;;;;;;;;16.60;99.90;;;;;;4821566;29;19921;-74
2022/08/06 07:20:32;;;;;;;;;;;16.80;99.90;;;;;;4822414;29;19932;-74
2022/08/06 07:23:00;;;;;;;;;;;17.00;99.90;;;;;;4823651;29;20019;-75
2022/08/06 07:25:26;;;;;;;;;;;17.40;99.90;;;;;;4821630;29;20404;-74
2022/08/06 07:27:52;;;;;;;;;;;17.60;99.90;;;;;;4820718;29;19999;-74
2022/08/06 07:30:19;;;;;;;;;;;17.60;99.90;;;;;;4818438;29;19921;-74
2022/08/06 07:32:45;;;;;;;;;;;17.30;99.90;;;;;;4821344;29;19921;-74
2022/08/06 07:35:12;;;;;;;;;;;17.50;99.90;;;;;;4822618;29;19954;-74
2022/08/06 07:37:41;;;;;;;;;;;17.70;99.90;;;;;;4811052;29;19948;-74
2022/08/06 07:40:08;;;;;;;;;;;17.90;99.90;;;;;;4820059;29;20297;-74
2022/08/06 07:42:35;;;;;;;;;;;18.30;99.90;;;;;;4820357;29;19921;-73
2022/08/06 07:45:03;;;;;;;;;;;18.20;99.90;;;;;;4819171;29;20392;-73
2022/08/06 07:47:37;;;;;;;;;;;18.30;99.90;;;;;;4821760;29;20067;-73
2022/08/06 07:50:03;;;;;;;;;;;18.40;99.90;;;;;;4820987;29;19927;-74
2022/08/06 07:52:29;;;;;;;;;;;18.40;99.90;;;;;;4821304;29;19928;-74
2022/08/06 07:54:55;;;;;;;;;;;18.50;99.90;;;;;;4815791;29;19974;-76
2022/08/06 07:57:22;;;;;;;;;;;19.00;99.90;;;;;;4796738;29;20403;-73
2022/08/06 07:59:48;;;;;;;;;;;19.30;99.90;;;;;;4820150;29;19968;-73
2022/08/06 08:02:14;;;;;;;;;;;19.40;99.70;;;;;;4819644;29;19927;-74
2022/08/06 08:07:24;;;;;;;;;;;19.00;97.60;;;;;;4820120;29;19981;-74
2022/08/06 08:09:51;;;;;;;;;;;19.00;99.90;;;;;;4821726;29;19925;-74
2022/08/06 08:12:17;;;;;;;;;;;18.80;98.80;;;;;;4819930;29;19921;-73
2022/08/06 08:14:43;;;;;;;;;;;18.60;99.90;;;;;;4817817;29;19928;-73
2022/08/06 08:17:09;;;;;;;;;;;18.90;99.90;;;;;;4813928;29;19927;-74
2022/08/06 08:19:35;;;;;;;;;;;19.10;99.90;;;;;;4809903;29;20343;-73
2022/08/06 08:22:11;;;;;;;;;;;19.40;97.30;;;;;;4805590;29;19932;-74
2022/08/06 08:24:37;;;;;;;;;;;19.70;97.90;;;;;;4811241;29;19924;-74
2022/08/06 08:27:07;;;;;;;;;;;19.60;96.80;;;;;;4807302;29;19932;-75
2022/08/06 08:29:32;;;;;;;;;;;19.70;97.50;;;;;;4818467;29;20019;-74
2022/08/06 08:31:58;;;;;;;;;;;19.60;96.80;;;;;;4806468;29;20469;-76
2022/08/06 08:34:23;;;;;;;;;;;19.50;96.70;;;;;;4804365;29;19944;-75
2022/08/06 08:36:49;;;;;;;;;;;19.00;96.20;;;;;;4815199;29;19925;-75
2022/08/06 08:39:15;;;;;;;;;;;18.90;97.10;;;;;;4813008;29;19928;-75
2022/08/06 08:41:44;;;;;;;;;;;18.70;98.10;;;;;;4820902;29;20003;-75
2022/08/06 08:44:11;;;;;;;;;;;18.50;97.90;;;;;;4819560;29;19921;-75
2022/08/06 08:46:40;;;;;;;;;;;18.30;99.30;;;;;;4820474;29;20685;-75
2022/08/06 08:49:06;;;;;;;;;;;18.10;99.90;;;;;;4820608;29;19925;-75
2022/08/06 08:51:34;;;;;;;;;;;17.80;99.90;;;;;;4805194;29;20361;-75
2022/08/06 08:54:01;;;;;;;;;;;17.50;99.90;;;;;;4818614;29;20441;-75
2022/08/06 08:56:27;;;;;;;;;;;17.40;99.90;;;;;;4819349;29;20377;-75
2022/08/06 08:58:53;;;;;;;;;;;17.30;99.90;;;;;;4820227;29;19924;-75
2022/08/06 09:01:19;;;;;;;;;;;17.20;99.90;;;;;;4819315;29;20448;-75
2022/08/06 09:03:45;;;;;;;;;;;17.20;99.90;;;;;;4819515;29;19951;-75
2022/08/06 09:06:11;;;;;;;;;;;17.10;99.90;;;;;;4816341;29;19948;-75
2022/08/06 09:08:37;;;;;;;;;;;17.10;99.90;;;;;;4819323;29;19928;-75
2022/08/06 09:11:04;;;;;;;;;;;17.10;99.90;;;;;;4816357;29;20011;-75
2022/08/06 09:13:29;;;;;;;;;;;17.10;99.90;;;;;;4809495;29;20016;-75
2022/08/06 09:15:56;;;;;;;;;;;17.20;99.90;;;;;;4819683;29;20039;-75
2022/08/06 09:18:22;;;;;;;;;;;17.20;99.90;;;;;;4820080;29;19948;-75
2022/08/06 09:20:48;;;;;;;;;;;17.10;99.90;;;;;;4800554;29;20030;-75
2022/08/06 09:23:15;;;;;;;;;;;17.10;99.90;;;;;;4819630;29;19924;-75
2022/08/06 09:25:41;;;;;;;;;;;17.20;99.90;;;;;;4818006;29;19921;-75
2022/08/06 09:28:11;;;;;;;;;;;17.70;99.90;;;;;;4819944;29;20007;-75
2022/08/06 09:30:37;;;;;;;;;;;18.20;99.90;;;;;;4820149;29;19924;-75
2022/08/06 09:33:09;;;;;;;;;;;18.60;99.90;;;;;;4818361;29;20093;-75
2022/08/06 09:35:35;;;;;;;;;;;18.70;99.90;;;;;;4819700;29;19932;-74
2022/08/06 09:38:05;;;;;;;;;;;18.70;99.90;;;;;;4820541;29;19924;-75
2022/08/06 09:40:31;;;;;;;;;;;18.80;99.90;;;;;;4820193;29;19974;-75
2022/08/06 09:42:56;;;;;;;;;;;18.60;99.90;;;;;;4790124;29;19963;-76
2022/08/06 09:45:23;;;;;;;;;;;18.50;99.90;;;;;;4820210;29;20416;-76
2022/08/06 09:47:49;;;;;;;;;;;18.60;99.20;;;;;;4819194;29;19933;-76
2022/08/06 09:50:29;;;;;;;;;;;19.00;98.50;;;;;;4819423;29;19921;-76
2022/08/06 09:53:00;;;;;;;;;;;19.40;99.80;;;;;;4820583;29;19928;-76
2022/08/06 09:55:30;;;;;;;;;;;19.50;96.00;;;;;;4817391;29;19921;-76
2022/08/06 09:57:55;;;;;;;;;;;19.60;96.90;;;;;;4805226;29;20054;-76
2022/08/06 10:00:26;;;;;;;;;;;19.70;96.40;;;;;;4819961;29;20019;-76
2022/08/06 10:02:59;;;;;;;;;;;20.10;95.70;;;;;;4807714;29;19945;-76
2022/08/06 10:05:25;;;;;;;;;;;20.30;94.80;;;;;;4821681;29;19944;-76
2022/08/06 10:08:03;;;;;;;;;;;20.10;94.50;;;;;;4821653;29;19925;-76
2022/08/06 10:11:02;;;;;;;;;;;19.80;94.80;;;;;;4823652;29;19997;-76
2022/08/06 10:13:29;;;;;;;;;;;19.50;95.70;;;;;;4784301;29;19978;-76
2022/08/06 10:15:59;;;;;;;;;;;19.30;95.50;;;;;;4824621;29;20373;-76
2022/08/06 10:18:29;;;;;;;;;;;19.60;96.40;;;;;;4822905;29;19920;-76
2022/08/06 10:21:02;;;;;;;;;;;20.10;96.30;;;;;;4821882;29;20381;-76
2022/08/06 10:23:30;;;;;;;;;;;20.10;95.30;;;;;;4813482;29;20337;-76
2022/08/06 10:25:56;;;;;;;;;;;19.80;94.20;;;;;;4823139;29;19964;-76
2022/08/06 10:28:23;;;;;;;;;;;20.10;94.20;;;;;;4808074;29;19964;-76
2022/08/06 10:30:50;;;;;;;;;;;20.10;93.60;;;;;;4822118;29;20519;-76
2022/08/06 10:33:16;;;;;;;;;;;20.30;93.10;;;;;;4822767;29;20406;-76
2022/08/06 10:35:43;;;;;;;;;;;20.80;93.90;;;;;;4821968;29;19932;-76
2022/08/06 10:38:12;;;;;;;;;;;21.00;92.00;;;;;;4822953;29;20307;-76
2022/08/06 10:40:38;;;;;;;;;;;20.50;93.40;;;;;;4823013;29;20300;-76
2022/08/06 10:43:06;;;;;;;;;;;20.00;91.80;;;;;;4821835;29;19929;-76
2022/08/06 10:45:33;;;;;;;;;;;19.80;92.80;;;;;;4822991;29;20023;-76
2022/08/06 10:47:58;;;;;;;;;;;19.60;92.00;;;;;;4807267;29;20023;-76
2022/08/06 10:50:24;;;;;;;;;;;19.40;91.80;;;;;;4823852;29;20349;-75
2022/08/06 10:52:50;;;;;;;;;;;19.40;93.20;;;;;;4822783;29;19932;-75
2022/08/06 10:55:17;;;;;;;;;;;19.70;93.90;;;;;;4822842;29;19973;-75
2022/08/06 10:57:42;;;;;;;;;;;20.00;93.10;;;;;;4822569;29;19935;-75
2022/08/06 11:00:09;;;;;;;;;;;20.00;93.90;;;;;;4822589;29;19920;-76
2022/08/06 11:02:53;;;;;;;;;;;20.10;94.00;;;;;;4822026;29;19969;-76
2022/08/06 11:05:20;;;;;;;;;;;20.00;93.90;;;;;;4822770;29;19928;-76
2022/08/06 11:07:51;;;;;;;;;;;19.80;93.00;;;;;;4823698;29;19925;-76
2022/08/06 11:10:29;;;;;;;;;;;19.80;92.70;;;;;;4822766;29;19925;-76
2022/08/06 11:13:14;;;;;;;;;;;19.80;92.50;;;;;;4822309;29;19924;-76
2022/08/06 11:15:40;;;;;;;;;;;19.80;92.10;;;;;;4822981;29;19924;-76
2022/08/06 11:18:07;;;;;;;;;;;19.90;91.30;;;;;;4818009;29;19936;-75
2022/08/06 11:20:33;;;;;;;;;;;19.90;91.40;;;;;;4796566;29;19943;-75
2022/08/06 11:22:59;;;;;;;;;;;20.20;92.50;;;;;;4816267;29;20385;-75
2022/08/06 11:25:40;;;;;;;;;;;20.10;90.90;;;;;;4814218;29;20500;-75
2022/08/06 11:28:11;;;;;;;;;;;20.00;91.20;;;;;;4819297;29;20392;-76
2022/08/06 11:30:37;;;;;;;;;;;20.10;91.10;;;;;;4822025;29;19924;-76
2022/08/06 11:33:03;;;;;;;;;;;20.30;92.40;;;;;;4818578;29;19952;-76
2022/08/06 11:35:31;;;;;;;;;;;20.30;92.00;;;;;;4805565;29;19940;-76
2022/08/06 11:37:57;;;;;;;;;;;20.30;91.20;;;;;;4805410;29;19921;-76
2022/08/06 11:40:24;;;;;;;;;;;20.40;91.00;;;;;;4805675;29;20028;-76
2022/08/06 11:42:50;;;;;;;;;;;20.50;90.80;;;;;;4805009;29;19935;-76
2022/08/06 11:45:15;;;;;;;;;;;21.10;91.90;;;;;;4819213;29;19927;-76
2022/08/06 11:48:03;;;;;;;;;;;21.70;91.30;;;;;;4816420;29;19921;-76
2022/08/06 11:50:29;;;;;;;;;;;22.30;90.70;;;;;;4816836;29;20394;-76
2022/08/06 11:52:54;;;;;;;;;;;21.80;88.80;;;;;;4823688;29;20016;-76
2022/08/06 11:55:20;;;;;;;;;;;21.50;90.10;;;;;;4806404;29;19944;-75
2022/08/06 11:57:46;;;;;;;;;;;21.40;90.30;;;;;;4811247;29;20370;-76
2022/08/06 12:00:14;;;;;;;;;;;20.90;88.70;;;;;;4818265;29;19947;-76
2022/08/06 12:02:39;;;;;;;;;;;21.10;89.10;;;;;;4822514;29;20015;-76
2022/08/06 12:05:06;;;;;;;;;;;21.00;89.50;;;;;;4820550;29;20019;-76
2022/08/06 12:07:36;;;;;;;;;;;21.30;91.00;;;;;;4806240;29;19932;-76
2022/08/06 12:10:09;;;;;;;;;;;21.40;87.90;;;;;;4821598;29;19925;-76
2022/08/06 12:12:38;;;;;;;;;;;21.30;89.50;;;;;;4821655;29;20062;-75
2022/08/06 12:15:23;;;;;;;;;;;21.30;91.20;;;;;;4820357;29;20092;-75
2022/08/06 12:17:56;;;;;;;;;;;21.80;91.80;;;;;;4820946;29;19939;-75
2022/08/06 12:20:38;;;;;;;;;;;22.20;90.40;;;;;;4820366;29;20015;-75
2022/08/06 12:23:05;;;;;;;;;;;21.90;89.20;;;;;;4806233;29;19951;-76
2022/08/06 12:25:31;;;;;;;;;;;21.40;88.80;;;;;;4821434;29;19921;-76
2022/08/06 12:27:57;;;;;;;;;;;21.20;90.80;;;;;;4821895;29;19936;-76
2022/08/06 12:30:23;;;;;;;;;;;21.20;90.50;;;;;;4821278;29;19947;-76
2022/08/06 12:32:48;;;;;;;;;;;21.10;87.70;;;;;;4821015;29;19925;-76
2022/08/06 12:35:14;;;;;;;;;;;21.10;88.00;;;;;;4820321;29;19993;-77
2022/08/06 12:37:41;;;;;;;;;;;20.80;88.30;;;;;;4818027;29;20216;-76
2022/08/06 12:40:29;;;;;;;;;;;20.70;88.30;;;;;;4818018;29;19927;-76
2022/08/06 12:43:08;;;;;;;;;;;20.60;87.50;;;;;;4815664;29;19928;-76
2022/08/06 12:45:34;;;;;;;;;;;20.90;90.40;;;;;;4818223;29;20392;-76
2022/08/06 12:47:59;;;;;;;;;;;21.40;89.20;;;;;;4821450;29;19925;-76
2022/08/06 12:50:26;;;;;;;;;;;21.30;89.10;;;;;;4821280;29;19988;-76
2022/08/06 12:53:21;;;;;;;;;;;21.50;88.70;;;;;;4819622;29;19950;-76
2022/08/06 12:55:51;;;;;;;;;;;21.60;89.60;;;;;;4813280;29;19928;-76
2022/08/06 12:58:21;;;;;;;;;;;21.70;86.70;;;;;;4805521;29;19925;-76
2022/08/06 13:00:51;;;;;;;;;;;21.90;88.60;;;;;;4820973;29;19924;-76
2022/08/06 13:03:18;;;;;;;;;;;22.10;89.20;;;;;;4819686;29;19921;-76
2022/08/06 13:05:44;;;;;;;;;;;22.00;89.80;;;;;;4820427;29;20433;-76
2022/08/06 13:08:10;;;;;;;;;;;22.30;88.70;;;;;;4819676;29;20364;-76
2022/08/06 13:10:36;;;;;;;;;;;22.80;89.30;;;;;;4820913;29;19920;-76
2022/08/06 13:13:03;;;;;;;;;;;23.00;89.50;;;;;;4824717;29;19924;-76
2022/08/06 13:15:29;;;;;;;;;;;23.00;86.30;;;;;;4817226;29;20390;-76
2022/08/06 13:18:03;;;;;;;;;;;23.10;89.60;;;;;;4820608;29;20301;-76
2022/08/06 13:20:39;;;;;;;;;;;23.10;86.90;;;;;;4820713;29;19924;-76
2022/08/06 13:23:05;;;;;;;;;;;22.70;87.90;;;;;;4819738;29;19925;-77
2022/08/06 13:25:40;;;;;;;;;;;22.50;87.80;;;;;;4814956;29;19952;-77
2022/08/06 13:28:10;;;;;;;;;;;22.40;88.10;;;;;;4810704;29;19921;-77
2022/08/06 13:30:35;;;;;;;;;;;22.40;88.90;;;;;;4809335;29;19928;-77
2022/08/06 13:33:20;;;;;;;;;;;22.10;87.00;;;;;;4810556;29;19921;-77
2022/08/06 13:35:48;;;;;;;;;;;22.20;87.80;;;;;;4802004;29;19921;-76
2022/08/06 13:38:34;;;;;;;;;;;22.40;87.00;;;;;;4804142;29;20171;-76
2022/08/06 13:41:00;;;;;;;;;;;22.40;85.10;;;;;;4814255;29;20029;-76
2022/08/06 13:43:35;;;;;;;;;;;22.60;86.60;;;;;;4823081;29;19968;-76
2022/08/06 13:46:04;;;;;;;;;;;22.30;86.10;;;;;;4812693;29;19925;-77
2022/08/06 13:48:30;;;;;;;;;;;22.10;86.20;;;;;;4807898;29;20036;-77
2022/08/06 13:50:55;;;;;;;;;;;22.00;86.50;;;;;;4816880;29;20031;-76
2022/08/06 13:53:21;;;;;;;;;;;21.70;86.60;;;;;;4816109;29;19924;-76
2022/08/06 13:55:46;;;;;;;;;;;22.00;88.70;;;;;;4820196;29;20369;-77
2022/08/06 13:58:12;;;;;;;;;;;22.00;86.50;;;;;;4822655;29;19947;-76
2022/08/06 14:00:39;;;;;;;;;;;22.30;88.30;;;;;;4823645;29;19921;-77
2022/08/06 14:03:04;;;;;;;;;;;22.60;88.80;;;;;;4823979;29;19928;-76
2022/08/06 14:05:31;;;;;;;;;;;22.60;87.10;;;;;;4823880;29;20372;-77
2022/08/06 14:07:56;;;;;;;;;;;22.60;86.40;;;;;;4817727;29;19990;-77
2022/08/06 14:10:22;;;;;;;;;;;22.10;85.70;;;;;;4823078;29;20442;-77
2022/08/06 14:13:15;;;;;;;;;;;22.00;87.10;;;;;;4823343;29;19972;-77
2022/08/06 14:15:34;;;;;;;;;;;21.90;86.90;;;;;;4823643;29;19924;-77
2022/08/06 14:18:00;;;;;;;;;;;22.00;88.20;;;;;;4821356;29;19997;-76
2022/08/06 14:20:25;;;;;;;;;;;22.00;86.20;;;;;;4822306;29;19963;-78
2022/08/06 14:22:55;;;;;;;;;;;21.90;88.80;;;;;;4822680;29;20053;-77
2022/08/06 14:25:21;;;;;;;;;;;22.00;88.30;;;;;;4821704;29;19924;-76
2022/08/06 14:27:47;;;;;;;;;;;21.90;88.40;;;;;;4807316;29;20300;-76